Terminal Aerodrome Forecast
Issued by NWS

Home | Current Version | Previous Version | Text Only | Print | Product List | Glossary On
Versions: 1 2 3 4 5 6 7 8 9 10 11 12 13 14 15 16 17
000
FTUS43 KILX 312339
TAFBMI
TAF
KBMI 312339Z 0100/0124 01005KT P6SM VCSH SCT110
     FM010100 15007KT P6SM VCSH BKN060
     FM010800 17005KT P6SM SCT050 BKN100 PROB30 0109/0112 6SM -TSRA
      OVC050CB
     FM011400 23007KT P6SM VCTS SCT050CB BKN100
     FM012000 26008KT P6SM BKN060=

USA.gov is the U.S. government's official web portal to all federal, state and local government web resources and services.